Terminal Aerodrome Forecast
Issued by NWS

Home | Current Version | Previous Version | Text Only | Print | Product List | Glossary On
Versions: 1 2 3 4 5 6 7 8 9 10 11 12 13 14 15
000
FTUS45 KABQ 300714 AAA
TAFFMN
TAF AMD
KFMN 300714Z 3007/3106 10007KT P6SM SCT150
     FM302100 26009KT P6SM VCTS SCT090CB
     FM310000 24011KT P6SM VCSH BKN100
     FM310400 12012KT P6SM BKN100=

USA.gov is the U.S. government's official web portal to all federal, state and local government web resources and services.